createdAt,value
2022-10-17T00:00:05.074Z,18.50
2022-10-17T00:00:15.061Z,18.49
2022-10-17T00:00:25.077Z,18.50
2022-10-17T00:00:35.080Z,18.50
2022-10-17T00:00:45.081Z,18.50
2022-10-17T00:00:55.080Z,18.49
2022-10-17T00:01:05.132Z,18.49
2022-10-17T00:01:15.126Z,18.50
2022-10-17T00:01:25.133Z,18.50
2022-10-17T00:01:35.141Z,18.49
2022-10-17T00:01:45.113Z,18.49
2022-10-17T00:01:55.121Z,18.48
2022-10-17T00:02:05.087Z,18.49
2022-10-17T00:02:15.073Z,18.49
2022-10-17T00:02:25.083Z,18.49
2022-10-17T00:02:35.086Z,18.49
2022-10-17T00:02:45.111Z,18.50
2022-10-17T00:02:55.086Z,18.48
2022-10-17T00:03:05.088Z,18.49
2022-10-17T00:03:15.088Z,18.49
2022-10-17T00:03:25.095Z,18.46
2022-10-17T00:03:35.090Z,18.48
2022-10-17T00:03:45.092Z,18.48
2022-10-17T00:03:55.093Z,18.49
2022-10-17T00:04:05.093Z,18.48
2022-10-17T00:04:15.095Z,18.48
2022-10-17T00:04:25.123Z,18.48
2022-10-17T00:04:35.115Z,18.48
2022-10-17T00:04:45.102Z,18.48
2022-10-17T00:04:55.082Z,18.48
2022-10-17T00:05:05.083Z,18.48
2022-10-17T00:05:15.107Z,18.49
2022-10-17T00:05:25.108Z,18.49
2022-10-17T00:05:35.100Z,18.49
2022-10-17T00:05:45.090Z,18.49
2022-10-17T00:05:55.103Z,18.48
2022-10-17T00:06:05.102Z,18.47
2022-10-17T00:06:15.105Z,18.49
2022-10-17T00:06:25.106Z,18.49
2022-10-17T00:06:35.106Z,18.49
2022-10-17T00:06:45.113Z,18.48
2022-10-17T00:06:55.109Z,18.49
2022-10-17T00:07:05.110Z,18.49
2022-10-17T00:07:15.133Z,18.49
2022-10-17T00:07:25.347Z,18.49
2022-10-17T00:07:35.108Z,18.48
2022-10-17T00:07:45.111Z,18.49
2022-10-17T00:07:55.115Z,18.48
2022-10-17T00:08:05.119Z,18.48
2022-10-17T00:08:15.110Z,18.47
2022-10-17T00:08:25.115Z,18.47
2022-10-17T00:08:35.117Z,18.47
2022-10-17T00:08:45.125Z,18.46
2022-10-17T00:08:55.117Z,18.49
2022-10-17T00:09:05.118Z,18.49
2022-10-17T00:09:15.119Z,18.48
2022-10-17T00:09:25.120Z,18.47
2022-10-17T00:09:35.121Z,18.48
2022-10-17T00:09:45.121Z,18.48
2022-10-17T00:09:55.122Z,18.48
2022-10-17T00:10:05.122Z,18.49
2022-10-17T00:10:15.124Z,18.49
2022-10-17T00:10:25.112Z,18.48
2022-10-17T00:10:35.124Z,18.49
2022-10-17T00:10:45.127Z,18.48
2022-10-17T00:10:55.123Z,18.47
2022-10-17T00:11:05.125Z,18.48
2022-10-17T00:11:15.152Z,18.49
2022-10-17T00:11:25.133Z,18.48
2022-10-17T00:11:35.129Z,18.48
2022-10-17T00:11:45.132Z,18.48
2022-10-17T00:11:55.132Z,18.48
2022-10-17T00:12:05.135Z,18.47
2022-10-17T00:12:15.140Z,18.49
2022-10-17T00:12:25.137Z,18.48
2022-10-17T00:12:35.123Z,18.49
2022-10-17T00:12:45.139Z,18.49
2022-10-17T00:12:55.139Z,18.49
2022-10-17T00:13:05.140Z,18.49
2022-10-17T00:13:15.128Z,18.49
2022-10-17T00:13:25.202Z,18.47
2022-10-17T00:13:35.164Z,18.48
2022-10-17T00:13:45.149Z,18.49
2022-10-17T00:13:55.151Z,18.49
2022-10-17T00:14:05.146Z,18.49
2022-10-17T00:14:15.152Z,18.47
2022-10-17T00:14:25.146Z,18.49
2022-10-17T00:14:35.151Z,18.48
2022-10-17T00:14:45.150Z,18.48
2022-10-17T00:14:55.149Z,18.48
2022-10-17T00:15:05.137Z,18.48
2022-10-17T00:15:15.155Z,18.48
2022-10-17T00:15:25.151Z,18.48
2022-10-17T00:15:35.137Z,18.49
2022-10-17T00:15:45.158Z,18.47
2022-10-17T00:15:55.154Z,18.48
2022-10-17T00:16:05.158Z,18.47
2022-10-17T00:16:15.165Z,18.50
2022-10-17T00:16:25.157Z,18.48
2022-10-17T00:16:35.160Z,18.49
2022-10-17T00:16:45.164Z,18.49
2022-10-17T00:16:55.165Z,18.48
2022-10-17T00:17:05.162Z,18.48
2022-10-17T00:17:15.193Z,18.49
2022-10-17T00:17:25.415Z,18.48
2022-10-17T00:17:35.147Z,18.48
2022-10-17T00:17:45.173Z,18.49
2022-10-17T00:17:55.162Z,18.49
2022-10-17T00:18:05.164Z,18.49
2022-10-17T00:18:15.166Z,18.49
2022-10-17T00:18:25.169Z,18.50
2022-10-17T00:18:35.169Z,18.49
2022-10-17T00:18:45.166Z,18.50
2022-10-17T00:18:55.152Z,18.49
2022-10-17T00:19:05.160Z,18.49
2022-10-17T00:19:15.171Z,18.49
2022-10-17T00:19:25.168Z,18.48
2022-10-17T00:19:35.174Z,18.51
2022-10-17T00:19:45.170Z,18.49
2022-10-17T00:19:55.171Z,18.48
2022-10-17T00:20:05.171Z,18.48
2022-10-17T00:20:15.173Z,18.49
2022-10-17T00:20:25.175Z,18.49
2022-10-17T00:20:35.185Z,18.49
2022-10-17T00:20:45.176Z,18.48
2022-10-17T00:20:55.178Z,18.47
2022-10-17T00:21:05.178Z,18.48
2022-10-17T00:21:15.178Z,18.47
2022-10-17T00:21:25.163Z,18.47
2022-10-17T00:21:35.187Z,18.48
2022-10-17T00:21:45.184Z,18.48
2022-10-17T00:21:55.183Z,18.49
2022-10-17T00:22:05.181Z,18.49
2022-10-17T00:22:15.184Z,18.49
2022-10-17T00:22:25.234Z,18.49
2022-10-17T00:22:45.182Z,18.47
2022-10-17T00:22:55.189Z,18.47
2022-10-17T00:23:05.203Z,18.48
2022-10-17T00:23:15.184Z,18.48
2022-10-17T00:23:25.205Z,18.49
2022-10-17T00:23:35.206Z,18.49
2022-10-17T00:23:45.190Z,18.48
2022-10-17T00:23:55.189Z,18.49
2022-10-17T00:24:05.190Z,18.48
2022-10-17T00:24:15.191Z,18.48
2022-10-17T00:24:25.193Z,18.50
2022-10-17T00:24:35.194Z,18.49
2022-10-17T00:24:45.195Z,18.48
2022-10-17T00:24:55.191Z,18.49
2022-10-17T00:25:05.180Z,18.49
2022-10-17T00:25:15.194Z,18.48
2022-10-17T00:25:25.195Z,18.50
2022-10-17T00:25:35.199Z,18.50
2022-10-17T00:25:45.199Z,18.51
2022-10-17T00:25:55.198Z,18.52
2022-10-17T00:26:05.201Z,18.49
2022-10-17T00:26:15.198Z,18.50
2022-10-17T00:26:25.197Z,18.50
2022-10-17T00:26:35.199Z,18.51
2022-10-17T00:26:45.200Z,18.51
2022-10-17T00:26:55.200Z,18.51
2022-10-17T00:27:05.200Z,18.51
2022-10-17T00:27:15.202Z,18.52
2022-10-17T00:27:25.598Z,18.50
2022-10-17T00:27:35.211Z,18.50
2022-10-17T00:27:45.207Z,18.50
2022-10-17T00:27:55.209Z,18.50
2022-10-17T00:28:05.210Z,18.51
2022-10-17T00:28:15.213Z,18.50
2022-10-17T00:28:25.240Z,18.50
2022-10-17T00:28:35.254Z,18.50
2022-10-17T00:28:45.257Z,18.51
2022-10-17T00:28:55.318Z,18.50
2022-10-17T00:29:05.273Z,18.50
2022-10-17T00:29:15.218Z,18.50
2022-10-17T00:29:25.218Z,18.48
2022-10-17T00:29:35.215Z,18.51
2022-10-17T00:29:45.221Z,18.48
2022-10-17T00:29:55.204Z,18.50
2022-10-17T00:30:05.210Z,18.51
2022-10-17T00:30:15.221Z,18.52
2022-10-17T00:30:25.222Z,18.51
2022-10-17T00:30:35.222Z,18.50
2022-10-17T00:30:45.210Z,18.52
2022-10-17T00:30:55.221Z,18.52
2022-10-17T00:31:05.225Z,18.51
2022-10-17T00:31:15.258Z,18.52
2022-10-17T00:31:25.230Z,18.51
2022-10-17T00:31:35.229Z,18.53
2022-10-17T00:31:45.258Z,18.49
2022-10-17T00:31:55.231Z,18.50
2022-10-17T00:32:05.220Z,18.51
2022-10-17T00:32:15.232Z,18.52
2022-10-17T00:32:25.585Z,18.50
2022-10-17T00:32:35.234Z,18.51
2022-10-17T00:32:45.229Z,18.52
2022-10-17T00:32:55.234Z,18.54
2022-10-17T00:33:05.223Z,18.50
2022-10-17T00:33:15.233Z,18.51
2022-10-17T00:33:25.275Z,18.51
2022-10-17T00:33:35.244Z,18.50
2022-10-17T00:33:45.238Z,18.51
2022-10-17T00:33:55.237Z,18.50
2022-10-17T00:34:05.245Z,18.51
2022-10-17T00:34:15.242Z,18.51
2022-10-17T00:34:25.243Z,18.52
2022-10-17T00:34:35.248Z,18.51
2022-10-17T00:34:45.241Z,18.52
2022-10-17T00:34:55.242Z,18.51
2022-10-17T00:35:05.243Z,18.51
2022-10-17T00:35:15.244Z,18.52
2022-10-17T00:35:25.246Z,18.50
2022-10-17T00:35:35.254Z,18.50
2022-10-17T00:35:45.249Z,18.51
2022-10-17T00:35:55.247Z,18.50
2022-10-17T00:36:05.258Z,18.51
2022-10-17T00:36:15.249Z,18.50
2022-10-17T00:36:25.248Z,18.52
2022-10-17T00:36:35.253Z,18.51
2022-10-17T00:36:45.251Z,18.52
2022-10-17T00:36:55.252Z,18.50
2022-10-17T00:37:05.255Z,18.51
2022-10-17T00:37:15.253Z,18.51
2022-10-17T00:37:25.240Z,18.51
2022-10-17T00:37:35.258Z,18.51
2022-10-17T00:37:45.269Z,18.49
2022-10-17T00:37:55.258Z,18.51
2022-10-17T00:38:05.261Z,18.51
2022-10-17T00:38:15.261Z,18.50
2022-10-17T00:38:25.270Z,18.50
2022-10-17T00:38:35.265Z,18.50
2022-10-17T00:38:45.261Z,18.51
2022-10-17T00:38:55.267Z,18.49
2022-10-17T00:39:05.264Z,18.50
2022-10-17T00:39:15.264Z,18.50
2022-10-17T00:39:25.264Z,18.50
2022-10-17T00:39:35.263Z,18.50
2022-10-17T00:39:45.266Z,18.51
2022-10-17T00:39:55.269Z,18.49
2022-10-17T00:40:05.268Z,18.51
2022-10-17T00:40:15.280Z,18.50
2022-10-17T00:40:25.270Z,18.50
2022-10-17T00:40:35.275Z,18.49
2022-10-17T00:40:45.310Z,18.49
2022-10-17T00:41:05.274Z,18.49
2022-10-17T00:41:15.285Z,18.49
2022-10-17T00:41:25.277Z,18.49
2022-10-17T00:41:35.263Z,18.50
2022-10-17T00:41:45.280Z,18.48
2022-10-17T00:41:55.284Z,18.48
2022-10-17T00:42:05.284Z,18.48
2022-10-17T00:42:15.283Z,18.50
2022-10-17T00:42:25.487Z,18.50
2022-10-17T00:42:35.286Z,18.49
2022-10-17T00:42:45.282Z,18.48
2022-10-17T00:42:55.271Z,18.50
2022-10-17T00:43:05.289Z,18.50
2022-10-17T00:43:15.290Z,18.49
2022-10-17T00:43:25.291Z,18.49
2022-10-17T00:43:35.291Z,18.50
2022-10-17T00:43:45.288Z,18.49
2022-10-17T00:43:55.291Z,18.50
2022-10-17T00:44:05.291Z,18.50
2022-10-17T00:44:15.293Z,18.51
2022-10-17T00:44:25.297Z,18.51
2022-10-17T00:44:35.293Z,18.50
2022-10-17T00:44:45.299Z,18.49
2022-10-17T00:44:55.299Z,18.50
2022-10-17T00:45:05.299Z,18.51
2022-10-17T00:45:15.300Z,18.49
2022-10-17T00:45:25.304Z,18.48
2022-10-17T00:45:35.301Z,18.50
2022-10-17T00:45:45.304Z,18.50
2022-10-17T00:45:55.304Z,18.50
2022-10-17T00:46:05.305Z,18.52
2022-10-17T00:46:15.309Z,18.49
2022-10-17T00:46:25.307Z,18.51
2022-10-17T00:46:35.314Z,18.50
2022-10-17T00:46:45.307Z,18.50
2022-10-17T00:46:55.311Z,18.49
2022-10-17T00:47:05.308Z,18.50
2022-10-17T00:47:15.306Z,18.49
2022-10-17T00:47:25.315Z,18.50
2022-10-17T00:47:35.317Z,18.49
2022-10-17T00:47:45.315Z,18.50
2022-10-17T00:47:55.313Z,18.50
2022-10-17T00:48:05.306Z,18.49
2022-10-17T00:48:16.585Z,18.51
2022-10-17T00:48:25.316Z,18.49
2022-10-17T00:48:35.322Z,18.51
2022-10-17T00:48:45.316Z,18.49
2022-10-17T00:48:55.318Z,18.48
2022-10-17T00:49:05.320Z,18.48
2022-10-17T00:49:15.320Z,18.49
2022-10-17T00:49:25.321Z,18.50
2022-10-17T00:49:35.321Z,18.50
2022-10-17T00:49:45.323Z,18.51
2022-10-17T00:49:55.384Z,18.50
2022-10-17T00:50:05.341Z,18.49
2022-10-17T00:50:15.324Z,18.50
2022-10-17T00:50:25.325Z,18.49
2022-10-17T00:50:35.325Z,18.49
2022-10-17T00:50:45.326Z,18.51
2022-10-17T00:50:55.329Z,18.51
2022-10-17T00:51:05.328Z,18.50
2022-10-17T00:51:15.354Z,18.51
2022-10-17T00:51:25.336Z,18.50
2022-10-17T00:51:35.336Z,18.51
2022-10-17T00:51:45.329Z,18.51
2022-10-17T00:51:55.334Z,18.51
2022-10-17T00:52:05.332Z,18.51
2022-10-17T00:52:15.333Z,18.51
2022-10-17T00:52:25.655Z,18.52
2022-10-17T00:52:35.333Z,18.51
2022-10-17T00:52:45.347Z,18.52
2022-10-17T00:52:55.334Z,18.51
2022-10-17T00:53:05.337Z,18.50
2022-10-17T00:53:15.339Z,18.52
2022-10-17T00:53:25.338Z,18.50
2022-10-17T00:53:35.342Z,18.50
2022-10-17T00:53:45.340Z,18.52
2022-10-17T00:53:55.345Z,18.52
2022-10-17T00:54:05.343Z,18.51
2022-10-17T00:54:15.342Z,18.52
2022-10-17T00:54:25.346Z,18.51
2022-10-17T00:54:35.341Z,18.52
2022-10-17T00:54:45.343Z,18.52
2022-10-17T00:54:55.344Z,18.51
2022-10-17T00:55:05.344Z,18.52
2022-10-17T00:55:15.345Z,18.52
2022-10-17T00:55:25.349Z,18.52
2022-10-17T00:55:35.346Z,18.53
2022-10-17T00:55:45.347Z,18.51
2022-10-17T00:55:55.349Z,18.50
2022-10-17T00:56:05.350Z,18.50
2022-10-17T00:56:15.351Z,18.52
2022-10-17T00:56:25.354Z,18.50
2022-10-17T00:56:35.351Z,18.51
2022-10-17T00:56:45.356Z,18.50
2022-10-17T00:56:55.341Z,18.50
2022-10-17T00:57:05.355Z,18.50
2022-10-17T00:57:15.352Z,18.49
2022-10-17T00:57:25.358Z,18.50
2022-10-17T00:57:35.357Z,18.51
2022-10-17T00:57:45.367Z,18.50
2022-10-17T00:57:55.370Z,18.50
2022-10-17T00:58:05.360Z,18.51
2022-10-17T00:58:15.357Z,18.50
2022-10-17T00:58:25.357Z,18.49
2022-10-17T00:58:35.370Z,18.52
2022-10-17T00:58:45.361Z,18.50
2022-10-17T00:58:55.397Z,18.51
2022-10-17T00:59:15.363Z,18.49
2022-10-17T00:59:25.366Z,18.48
2022-10-17T00:59:35.364Z,18.50
2022-10-17T00:59:45.367Z,18.49
2022-10-17T00:59:55.366Z,18.51
2022-10-17T01:00:05.364Z,18.49
2022-10-17T01:00:15.370Z,18.50
2022-10-17T01:00:25.367Z,18.49
2022-10-17T01:00:35.367Z,18.50
2022-10-17T01:00:45.368Z,18.51
2022-10-17T01:00:55.369Z,18.49
2022-10-17T01:01:05.422Z,18.49
2022-10-17T01:01:15.405Z,18.50
2022-10-17T01:01:25.408Z,18.50
2022-10-17T01:01:35.405Z,18.49
2022-10-17T01:01:45.399Z,18.49
2022-10-17T01:01:55.359Z,18.50
2022-10-17T01:02:05.375Z,18.50
2022-10-17T01:02:15.375Z,18.49
2022-10-17T01:02:25.539Z,18.49
2022-10-17T01:02:35.378Z,18.49
2022-10-17T01:02:45.382Z,18.50
2022-10-17T01:02:55.381Z,18.50
2022-10-17T01:03:05.381Z,18.50
2022-10-17T01:03:15.385Z,18.50
2022-10-17T01:03:25.384Z,18.50
2022-10-17T01:03:35.397Z,18.49
2022-10-17T01:03:45.398Z,18.53
2022-10-17T01:03:55.385Z,18.51
2022-10-17T01:04:05.385Z,18.50
2022-10-17T01:04:15.385Z,18.49
2022-10-17T01:04:25.386Z,18.51
2022-10-17T01:04:35.386Z,18.51
2022-10-17T01:04:45.391Z,18.51
2022-10-17T01:04:55.389Z,18.50
2022-10-17T01:05:05.391Z,18.51
2022-10-17T01:05:15.390Z,18.52
2022-10-17T01:05:25.397Z,18.52
2022-10-17T01:05:35.376Z,18.52
2022-10-17T01:05:45.393Z,18.53
2022-10-17T01:05:55.396Z,18.52
2022-10-17T01:06:05.395Z,18.52
2022-10-17T01:06:15.393Z,18.52
2022-10-17T01:06:25.380Z,18.52
2022-10-17T01:06:35.393Z,18.52
2022-10-17T01:06:45.398Z,18.52
2022-10-17T01:06:55.397Z,18.51
2022-10-17T01:07:05.399Z,18.53
2022-10-17T01:07:15.383Z,18.53
2022-10-17T01:07:25.398Z,18.53
2022-10-17T01:07:37.277Z,18.51
2022-10-17T01:07:45.404Z,18.51
2022-10-17T01:07:55.402Z,18.49
2022-10-17T01:08:05.405Z,18.50
2022-10-17T01:08:15.407Z,18.50
2022-10-17T01:08:25.406Z,18.51
2022-10-17T01:08:35.419Z,18.50
2022-10-17T01:08:45.404Z,18.51
2022-10-17T01:08:55.409Z,18.50
2022-10-17T01:09:05.405Z,18.52
2022-10-17T01:09:15.407Z,18.51
2022-10-17T01:09:25.408Z,18.50
2022-10-17T01:09:35.411Z,18.51
2022-10-17T01:09:45.409Z,18.52
2022-10-17T01:09:55.412Z,18.52
2022-10-17T01:10:05.411Z,18.50
2022-10-17T01:10:15.465Z,18.50
2022-10-17T01:10:25.416Z,18.52
2022-10-17T01:10:35.417Z,18.50
2022-10-17T01:10:45.415Z,18.51
2022-10-17T01:10:55.419Z,18.52
2022-10-17T01:11:05.421Z,18.51
2022-10-17T01:11:15.444Z,18.50
2022-10-17T01:11:25.420Z,18.49
2022-10-17T01:11:35.419Z,18.51
2022-10-17T01:11:45.406Z,18.51
2022-10-17T01:11:55.423Z,18.50
2022-10-17T01:12:05.428Z,18.51
2022-10-17T01:12:15.427Z,18.51
2022-10-17T01:12:25.643Z,18.52
2022-10-17T01:12:35.421Z,18.49
2022-10-17T01:12:45.427Z,18.52
2022-10-17T01:12:55.424Z,18.51
2022-10-17T01:13:05.425Z,18.51
2022-10-17T01:13:15.429Z,18.50
2022-10-17T01:13:25.428Z,18.51
2022-10-17T01:13:35.437Z,18.50
2022-10-17T01:13:45.432Z,18.49
2022-10-17T01:13:55.430Z,18.50
2022-10-17T01:14:05.433Z,18.50
2022-10-17T01:14:15.434Z,18.51
2022-10-17T01:14:25.431Z,18.51
2022-10-17T01:14:35.437Z,18.51
2022-10-17T01:14:45.437Z,18.50
2022-10-17T01:14:55.436Z,18.52
2022-10-17T01:15:05.433Z,18.53
2022-10-17T01:15:15.433Z,18.52
2022-10-17T01:15:25.436Z,18.52
2022-10-17T01:15:35.438Z,18.52
2022-10-17T01:15:45.442Z,18.52
2022-10-17T01:15:55.440Z,18.52
2022-10-17T01:16:05.440Z,18.51
2022-10-17T01:16:15.439Z,18.52
2022-10-17T01:16:25.445Z,18.52
2022-10-17T01:16:35.445Z,18.52
2022-10-17T01:16:45.444Z,18.53
2022-10-17T01:16:55.444Z,18.51
2022-10-17T01:17:05.449Z,18.52
2022-10-17T01:17:15.448Z,18.51
2022-10-17T01:17:25.445Z,18.52
2022-10-17T01:17:35.432Z,18.51
2022-10-17T01:17:45.432Z,18.52
2022-10-17T01:17:55.449Z,18.52
2022-10-17T01:18:05.450Z,18.53
2022-10-17T01:18:15.450Z,18.53
2022-10-17T01:18:25.449Z,18.52
2022-10-17T01:18:35.481Z,18.53
2022-10-17T01:18:45.452Z,18.52
2022-10-17T01:18:55.452Z,18.51
2022-10-17T01:19:05.437Z,18.52
2022-10-17T01:19:15.484Z,18.53
2022-10-17T01:19:35.556Z,18.53
2022-10-17T01:19:45.456Z,18.54
2022-10-17T01:19:55.462Z,18.51
2022-10-17T01:20:05.458Z,18.52
2022-10-17T01:20:15.460Z,18.51
2022-10-17T01:20:25.462Z,18.52
2022-10-17T01:20:35.460Z,18.52
2022-10-17T01:20:45.465Z,18.51
2022-10-17T01:20:55.463Z,18.51
2022-10-17T01:21:05.464Z,18.53
2022-10-17T01:21:15.465Z,18.51
2022-10-17T01:21:25.469Z,18.53
2022-10-17T01:21:35.465Z,18.52
2022-10-17T01:21:45.467Z,18.52
2022-10-17T01:21:55.466Z,18.50
2022-10-17T01:22:05.469Z,18.50
2022-10-17T01:22:15.468Z,18.49
2022-10-17T01:22:25.670Z,18.50
2022-10-17T01:22:35.469Z,18.51
2022-10-17T01:22:45.470Z,18.49
2022-10-17T01:22:55.469Z,18.50
2022-10-17T01:23:05.472Z,18.50
2022-10-17T01:23:15.473Z,18.50
2022-10-17T01:23:25.471Z,18.51
2022-10-17T01:23:35.473Z,18.52
2022-10-17T01:23:45.475Z,18.50
2022-10-17T01:23:55.477Z,18.51
2022-10-17T01:24:05.463Z,18.50
2022-10-17T01:24:15.465Z,18.50
2022-10-17T01:24:25.463Z,18.51
2022-10-17T01:24:35.478Z,18.50
2022-10-17T01:24:45.488Z,18.51
2022-10-17T01:24:55.478Z,18.51
2022-10-17T01:25:05.482Z,18.49
2022-10-17T01:25:15.483Z,18.49
2022-10-17T01:25:25.486Z,18.50
2022-10-17T01:25:35.485Z,18.50
2022-10-17T01:25:45.469Z,18.50
2022-10-17T01:25:55.485Z,18.51
2022-10-17T01:26:05.487Z,18.51
2022-10-17T01:26:15.489Z,18.51
2022-10-17T01:26:25.494Z,18.50
2022-10-17T01:26:35.474Z,18.50
2022-10-17T01:26:45.488Z,18.52
2022-10-17T01:26:55.494Z,18.51
2022-10-17T01:27:05.494Z,18.52
2022-10-17T01:27:15.491Z,18.51
2022-10-17T01:27:25.497Z,18.53
2022-10-17T01:27:35.494Z,18.50
2022-10-17T01:27:45.481Z,18.51
2022-10-17T01:27:55.494Z,18.51
2022-10-17T01:28:05.496Z,18.51
2022-10-17T01:28:15.494Z,18.50
2022-10-17T01:28:25.624Z,18.51
2022-10-17T01:28:35.591Z,18.51
2022-10-17T01:28:45.502Z,18.49
2022-10-17T01:28:55.485Z,18.50
2022-10-17T01:29:05.499Z,18.50
2022-10-17T01:29:15.501Z,18.51
2022-10-17T01:29:25.515Z,18.51
2022-10-17T01:29:35.503Z,18.51
2022-10-17T01:29:45.503Z,18.50
2022-10-17T01:29:55.505Z,18.51
2022-10-17T01:30:05.505Z,18.51
2022-10-17T01:30:15.493Z,18.51
2022-10-17T01:30:25.514Z,18.52
2022-10-17T01:30:35.506Z,18.51
2022-10-17T01:30:45.507Z,18.50
2022-10-17T01:30:55.508Z,18.53
2022-10-17T01:31:05.514Z,18.51
2022-10-17T01:31:15.512Z,18.52
2022-10-17T01:31:25.540Z,18.50
2022-10-17T01:31:35.532Z,18.50
2022-10-17T01:31:45.513Z,18.52
2022-10-17T01:31:55.514Z,18.50
2022-10-17T01:32:05.520Z,18.51
2022-10-17T01:32:15.520Z,18.52
2022-10-17T01:32:25.998Z,18.52
2022-10-17T01:32:35.505Z,18.51
2022-10-17T01:32:45.518Z,18.51
2022-10-17T01:32:55.517Z,18.50
2022-10-17T01:33:05.524Z,18.50
2022-10-17T01:33:15.523Z,18.51
2022-10-17T01:33:25.521Z,18.51
2022-10-17T01:33:35.526Z,18.50
2022-10-17T01:33:45.527Z,18.52
2022-10-17T01:33:55.509Z,18.51
2022-10-17T01:34:05.528Z,18.53
2022-10-17T01:34:15.512Z,18.50
2022-10-17T01:34:25.527Z,18.52
2022-10-17T01:34:35.533Z,18.51
2022-10-17T01:34:45.531Z,18.53
2022-10-17T01:34:55.531Z,18.51
2022-10-17T01:35:05.534Z,18.50
2022-10-17T01:35:15.530Z,18.52
2022-10-17T01:35:25.528Z,18.53
2022-10-17T01:35:35.532Z,18.52
2022-10-17T01:35:45.530Z,18.53
2022-10-17T01:35:55.531Z,18.53
2022-10-17T01:36:06.007Z,18.51
2022-10-17T01:36:15.534Z,18.52
2022-10-17T01:36:25.521Z,18.52
2022-10-17T01:36:35.536Z,18.53
2022-10-17T01:36:45.536Z,18.52
2022-10-17T01:36:55.545Z,18.53
2022-10-17T01:37:05.540Z,18.54
2022-10-17T01:37:15.541Z,18.51
2022-10-17T01:37:25.545Z,18.51
2022-10-17T01:37:35.551Z,18.52
2022-10-17T01:37:45.576Z,18.51
2022-10-17T01:37:55.548Z,18.52
2022-10-17T01:38:05.549Z,18.52
2022-10-17T01:38:15.550Z,18.52
2022-10-17T01:38:25.548Z,18.53
2022-10-17T01:38:35.548Z,18.53
2022-10-17T01:38:45.549Z,18.52
2022-10-17T01:38:55.548Z,18.52
2022-10-17T01:39:05.578Z,18.52
2022-10-17T01:39:15.550Z,18.53
2022-10-17T01:39:26.974Z,18.53
2022-10-17T01:39:36.984Z,18.51
2022-10-17T01:39:47.803Z,18.49
2022-10-17T01:39:55.551Z,18.49
2022-10-17T01:40:05.554Z,18.48
2022-10-17T01:40:15.554Z,18.48
2022-10-17T01:40:25.557Z,18.49
2022-10-17T01:40:35.555Z,18.49
2022-10-17T01:40:45.557Z,18.51
2022-10-17T01:40:55.555Z,18.50
2022-10-17T01:41:05.559Z,18.51
2022-10-17T01:41:15.556Z,18.52
2022-10-17T01:41:25.558Z,18.52
2022-10-17T01:41:35.559Z,18.51
2022-10-17T01:41:45.546Z,18.51
2022-10-17T01:41:55.561Z,18.52
2022-10-17T01:42:05.559Z,18.52
2022-10-17T01:42:15.561Z,18.52
2022-10-17T01:42:25.941Z,18.52
2022-10-17T01:42:35.562Z,18.52
2022-10-17T01:42:45.568Z,18.52
2022-10-17T01:42:55.565Z,18.53
2022-10-17T01:43:05.567Z,18.52
2022-10-17T01:43:15.568Z,18.53
2022-10-17T01:43:25.567Z,18.53
2022-10-17T01:43:35.589Z,18.54
2022-10-17T01:43:45.577Z,18.53
2022-10-17T01:43:55.570Z,18.53
2022-10-17T01:44:05.570Z,18.54
2022-10-17T01:44:15.572Z,18.55
2022-10-17T01:44:25.571Z,18.55
2022-10-17T01:44:35.573Z,18.54
2022-10-17T01:44:45.578Z,18.52
2022-10-17T01:44:55.576Z,18.52
2022-10-17T01:45:05.578Z,18.54
2022-10-17T01:45:15.581Z,18.53
2022-10-17T01:45:25.564Z,18.53
2022-10-17T01:45:35.580Z,18.53
2022-10-17T01:45:45.581Z,18.53
2022-10-17T01:45:55.583Z,18.53
2022-10-17T01:46:05.581Z,18.51
2022-10-17T01:46:15.584Z,18.53
2022-10-17T01:46:25.587Z,18.54
2022-10-17T01:46:35.587Z,18.54
2022-10-17T01:46:45.603Z,18.53
2022-10-17T01:47:05.594Z,18.52
2022-10-17T01:47:15.590Z,18.53
2022-10-17T01:47:25.903Z,18.53
2022-10-17T01:47:35.590Z,18.52
2022-10-17T01:47:45.595Z,18.54
2022-10-17T01:47:55.590Z,18.53
2022-10-17T01:48:05.594Z,18.52
2022-10-17T01:48:15.595Z,18.53
2022-10-17T01:48:25.594Z,18.53
2022-10-17T01:48:35.595Z,18.54
2022-10-17T01:48:45.599Z,18.54
2022-10-17T01:48:55.596Z,18.53
2022-10-17T01:49:05.598Z,18.53
2022-10-17T01:49:15.599Z,18.53
2022-10-17T01:49:25.601Z,18.53
2022-10-17T01:49:35.599Z,18.54
2022-10-17T01:49:45.597Z,18.53
2022-10-17T01:49:55.599Z,18.53
2022-10-17T01:50:05.600Z,18.53
2022-10-17T01:50:15.601Z,18.54
2022-10-17T01:50:25.603Z,18.54
2022-10-17T01:50:35.602Z,18.53
2022-10-17T01:50:45.603Z,18.54
2022-10-17T01:50:55.604Z,18.55
2022-10-17T01:51:05.604Z,18.53
2022-10-17T01:51:15.603Z,18.53
2022-10-17T01:51:25.608Z,18.56
2022-10-17T01:51:35.592Z,18.54
2022-10-17T01:51:45.607Z,18.55
2022-10-17T01:51:55.612Z,18.55
2022-10-17T01:52:05.608Z,18.55
2022-10-17T01:52:15.609Z,18.56
2022-10-17T01:52:25.617Z,18.56
2022-10-17T01:52:35.614Z,18.55
2022-10-17T01:52:45.613Z,18.53
2022-10-17T01:52:55.619Z,18.54
2022-10-17T01:53:05.618Z,18.54
2022-10-17T01:53:15.653Z,18.55
2022-10-17T01:53:25.622Z,18.54
2022-10-17T01:53:35.619Z,18.55
2022-10-17T01:53:45.619Z,18.54
2022-10-17T01:53:55.628Z,18.54
2022-10-17T01:54:05.617Z,18.55
2022-10-17T01:54:15.620Z,18.53
2022-10-17T01:54:25.628Z,18.53
2022-10-17T01:54:35.623Z,18.55
2022-10-17T01:54:45.622Z,18.56
2022-10-17T01:54:55.624Z,18.55
2022-10-17T01:55:05.625Z,18.55
2022-10-17T01:55:15.625Z,18.54
2022-10-17T01:55:25.630Z,18.55
2022-10-17T01:55:35.628Z,18.53
2022-10-17T01:55:45.702Z,18.54
2022-10-17T01:55:55.637Z,18.56
2022-10-17T01:56:05.615Z,18.54
2022-10-17T01:56:15.630Z,18.54
2022-10-17T01:56:25.617Z,18.54
2022-10-17T01:56:35.631Z,18.54
2022-10-17T01:56:45.631Z,18.55
2022-10-17T01:56:55.637Z,18.53
2022-10-17T01:57:05.641Z,18.55
2022-10-17T01:57:15.637Z,18.53
2022-10-17T01:57:25.843Z,18.54
2022-10-17T01:57:35.639Z,18.54
2022-10-17T01:57:45.640Z,18.55
2022-10-17T01:57:55.644Z,18.56
2022-10-17T01:58:05.642Z,18.56
2022-10-17T01:58:15.662Z,18.53
2022-10-17T01:58:25.649Z,18.54
2022-10-17T01:58:35.646Z,18.54
2022-10-17T01:58:45.658Z,18.55
2022-10-17T01:58:55.645Z,18.56
2022-10-17T01:59:05.648Z,18.55
2022-10-17T01:59:15.651Z,18.54
2022-10-17T01:59:25.648Z,18.54
2022-10-17T01:59:35.660Z,18.54
2022-10-17T01:59:45.653Z,18.55
2022-10-17T01:59:55.652Z,18.54
2022-10-17T02:00:05.652Z,18.55
2022-10-17T02:00:15.664Z,18.54
2022-10-17T02:00:25.657Z,18.56
2022-10-17T02:00:35.654Z,18.54
2022-10-17T02:00:45.655Z,18.55
2022-10-17T02:00:55.712Z,18.52
2022-10-17T02:01:05.730Z,18.53
2022-10-17T02:01:15.761Z,18.54
2022-10-17T02:01:25.716Z,18.53
2022-10-17T02:01:35.750Z,18.54
2022-10-17T02:01:45.737Z,18.52
2022-10-17T02:01:55.645Z,18.53
2022-10-17T02:02:05.660Z,18.53
2022-10-17T02:02:15.660Z,18.52
2022-10-17T02:02:25.662Z,18.51
2022-10-17T02:02:35.662Z,18.53
2022-10-17T02:02:45.665Z,18.53
2022-10-17T02:02:55.666Z,18.53
2022-10-17T02:03:05.695Z,18.53
2022-10-17T02:03:15.670Z,18.53
2022-10-17T02:03:25.674Z,18.52
2022-10-17T02:03:35.670Z,18.52
2022-10-17T02:03:45.684Z,18.53
2022-10-17T02:03:55.673Z,18.52
2022-10-17T02:04:05.675Z,18.52
2022-10-17T02:04:15.673Z,18.52
2022-10-17T02:04:25.675Z,18.52
2022-10-17T02:04:35.676Z,18.53
2022-10-17T02:04:45.678Z,18.53
2022-10-17T02:04:55.699Z,18.52
2022-10-17T02:05:05.683Z,18.53
2022-10-17T02:05:15.680Z,18.53
2022-10-17T02:05:25.679Z,18.53
2022-10-17T02:05:35.682Z,18.53
2022-10-17T02:05:45.666Z,18.53
2022-10-17T02:05:55.682Z,18.52
2022-10-17T02:06:05.683Z,18.51
2022-10-17T02:06:15.685Z,18.52
2022-10-17T02:06:25.689Z,18.53
2022-10-17T02:06:35.687Z,18.51
2022-10-17T02:06:45.690Z,18.51
2022-10-17T02:06:55.690Z,18.53
2022-10-17T02:07:05.673Z,18.51
2022-10-17T02:07:15.688Z,18.51
2022-10-17T02:07:26.060Z,18.52
2022-10-17T02:07:35.691Z,18.51
2022-10-17T02:07:45.691Z,18.52
2022-10-17T02:07:55.692Z,18.50
2022-10-17T02:08:05.693Z,18.54
2022-10-17T02:08:15.694Z,18.53
2022-10-17T02:08:25.693Z,18.55
2022-10-17T02:08:35.695Z,18.53
2022-10-17T02:08:45.708Z,18.52
2022-10-17T02:08:55.696Z,18.52
2022-10-17T02:09:05.696Z,18.53
2022-10-17T02:09:15.700Z,18.53
2022-10-17T02:09:25.701Z,18.56
2022-10-17T02:09:35.698Z,18.56